sensor_id;sensor_type;location;lat;lon;timestamp;P1;durP1;ratioP1;P2;durP2;ratioP2
17662;SDS011;8950;56.892;15.090;2022-10-31T00:00:14;2.65;;;2.08;;
17662;SDS011;8950;56.892;15.090;2022-10-31T00:02:41;4.22;;;2.15;;
17662;SDS011;8950;56.892;15.090;2022-10-31T00:05:07;2.75;;;1.90;;
17662;SDS011;8950;56.892;15.090;2022-10-31T00:07:35;2.85;;;1.98;;
17662;SDS011;8950;56.892;15.090;2022-10-31T00:10:02;2.40;;;2.03;;
17662;SDS011;8950;56.892;15.090;2022-10-31T00:12:29;2.70;;;1.90;;
17662;SDS011;8950;56.892;15.090;2022-10-31T00:14:56;3.00;;;1.85;;
17662;SDS011;8950;56.892;15.090;2022-10-31T00:17:22;4.80;;;2.05;;
17662;SDS011;8950;56.892;15.090;2022-10-31T00:19:49;4.07;;;2.13;;
17662;SDS011;8950;56.892;15.090;2022-10-31T00:22:15;5.30;;;2.33;;
17662;SDS011;8950;56.892;15.090;2022-10-31T00:24:43;2.35;;;2.15;;
17662;SDS011;8950;56.892;15.090;2022-10-31T00:27:09;4.00;;;2.25;;
17662;SDS011;8950;56.892;15.090;2022-10-31T00:29:36;2.88;;;2.05;;
17662;SDS011;8950;56.892;15.090;2022-10-31T00:32:02;3.88;;;2.22;;
17662;SDS011;8950;56.892;15.090;2022-10-31T00:34:28;3.33;;;2.10;;
17662;SDS011;8950;56.892;15.090;2022-10-31T00:36:55;2.25;;;1.98;;
17662;SDS011;8950;56.892;15.090;2022-10-31T00:39:21;2.63;;;2.15;;
17662;SDS011;8950;56.892;15.090;2022-10-31T00:41:49;2.88;;;2.40;;
17662;SDS011;8950;56.892;15.090;2022-10-31T00:44:15;2.20;;;2.00;;
17662;SDS011;8950;56.892;15.090;2022-10-31T00:46:41;3.08;;;2.30;;
17662;SDS011;8950;56.892;15.090;2022-10-31T00:49:08;2.33;;;2.10;;
17662;SDS011;8950;56.892;15.090;2022-10-31T00:51:34;3.42;;;2.30;;
17662;SDS011;8950;56.892;15.090;2022-10-31T00:54:01;4.13;;;2.30;;
17662;SDS011;8950;56.892;15.090;2022-10-31T00:56:28;3.35;;;2.47;;
17662;SDS011;8950;56.892;15.090;2022-10-31T00:58:55;3.70;;;2.80;;
17662;SDS011;8950;56.892;15.090;2022-10-31T01:01:22;6.95;;;3.08;;
17662;SDS011;8950;56.892;15.090;2022-10-31T01:03:48;5.32;;;3.50;;
17662;SDS011;8950;56.892;15.090;2022-10-31T01:06:14;5.30;;;3.38;;
17662;SDS011;8950;56.892;15.090;2022-10-31T01:08:41;8.35;;;3.38;;
17662;SDS011;8950;56.892;15.090;2022-10-31T01:11:10;6.55;;;3.58;;
17662;SDS011;8950;56.892;15.090;2022-10-31T01:13:36;5.47;;;3.05;;
17662;SDS011;8950;56.892;15.090;2022-10-31T01:16:05;4.78;;;2.97;;
17662;SDS011;8950;56.892;15.090;2022-10-31T01:18:32;5.68;;;3.30;;
17662;SDS011;8950;56.892;15.090;2022-10-31T01:20:59;3.72;;;3.10;;
17662;SDS011;8950;56.892;15.090;2022-10-31T01:23:26;5.85;;;3.15;;
17662;SDS011;8950;56.892;15.090;2022-10-31T01:25:59;5.47;;;2.95;;
17662;SDS011;8950;56.892;15.090;2022-10-31T01:28:26;5.80;;;3.15;;
17662;SDS011;8950;56.892;15.090;2022-10-31T01:30:52;3.80;;;2.90;;
17662;SDS011;8950;56.892;15.090;2022-10-31T01:33:20;4.80;;;3.28;;
17662;SDS011;8950;56.892;15.090;2022-10-31T01:35:46;6.40;;;3.13;;
17662;SDS011;8950;56.892;15.090;2022-10-31T01:38:13;4.32;;;3.00;;
17662;SDS011;8950;56.892;15.090;2022-10-31T01:40:39;4.97;;;3.50;;
17662;SDS011;8950;56.892;15.090;2022-10-31T01:43:07;6.68;;;3.92;;
17662;SDS011;8950;56.892;15.090;2022-10-31T01:45:35;5.93;;;3.40;;
17662;SDS011;8950;56.892;15.090;2022-10-31T01:48:02;6.80;;;3.60;;
17662;SDS011;8950;56.892;15.090;2022-10-31T01:50:30;5.00;;;3.17;;
17662;SDS011;8950;56.892;15.090;2022-10-31T01:52:57;4.10;;;3.55;;
17662;SDS011;8950;56.892;15.090;2022-10-31T01:55:25;5.90;;;3.42;;
17662;SDS011;8950;56.892;15.090;2022-10-31T01:57:53;5.60;;;3.50;;
17662;SDS011;8950;56.892;15.090;2022-10-31T02:00:21;6.10;;;3.88;;
17662;SDS011;8950;56.892;15.090;2022-10-31T02:02:47;8.38;;;4.57;;
17662;SDS011;8950;56.892;15.090;2022-10-31T02:05:15;6.50;;;4.30;;
17662;SDS011;8950;56.892;15.090;2022-10-31T02:07:45;9.70;;;4.65;;
17662;SDS011;8950;56.892;15.090;2022-10-31T02:10:14;8.45;;;5.10;;
17662;SDS011;8950;56.892;15.090;2022-10-31T02:12:41;5.90;;;4.85;;
17662;SDS011;8950;56.892;15.090;2022-10-31T02:15:08;6.70;;;4.63;;
17662;SDS011;8950;56.892;15.090;2022-10-31T02:17:35;8.68;;;4.93;;
17662;SDS011;8950;56.892;15.090;2022-10-31T02:20:04;7.88;;;4.57;;
17662;SDS011;8950;56.892;15.090;2022-10-31T02:22:37;8.43;;;5.38;;
17662;SDS011;8950;56.892;15.090;2022-10-31T02:25:15;7.57;;;4.68;;
17662;SDS011;8950;56.892;15.090;2022-10-31T02:28:01;8.25;;;5.30;;
17662;SDS011;8950;56.892;15.090;2022-10-31T02:30:33;7.10;;;5.30;;
17662;SDS011;8950;56.892;15.090;2022-10-31T02:33:08;9.55;;;5.18;;
17662;SDS011;8950;56.892;15.090;2022-10-31T02:35:39;8.88;;;4.78;;
17662;SDS011;8950;56.892;15.090;2022-10-31T02:38:09;6.30;;;4.20;;
17662;SDS011;8950;56.892;15.090;2022-10-31T02:40:39;6.40;;;4.53;;
17662;SDS011;8950;56.892;15.090;2022-10-31T02:43:11;5.45;;;4.70;;
17662;SDS011;8950;56.892;15.090;2022-10-31T02:45:41;6.75;;;4.80;;
17662;SDS011;8950;56.892;15.090;2022-10-31T02:48:13;5.03;;;4.53;;
17662;SDS011;8950;56.892;15.090;2022-10-31T02:50:41;5.93;;;4.35;;
17662;SDS011;8950;56.892;15.090;2022-10-31T02:53:08;5.13;;;4.25;;
17662;SDS011;8950;56.892;15.090;2022-10-31T02:55:49;4.75;;;4.07;;
17662;SDS011;8950;56.892;15.090;2022-10-31T02:58:17;4.70;;;4.13;;
17662;SDS011;8950;56.892;15.090;2022-10-31T03:00:47;4.95;;;4.38;;
17662;SDS011;8950;56.892;15.090;2022-10-31T03:03:18;4.28;;;3.88;;
17662;SDS011;8950;56.892;15.090;2022-10-31T03:05:48;5.40;;;4.28;;
17662;SDS011;8950;56.892;15.090;2022-10-31T03:08:21;5.20;;;3.80;;
17662;SDS011;8950;56.892;15.090;2022-10-31T03:10:51;4.50;;;4.10;;
17662;SDS011;8950;56.892;15.090;2022-10-31T03:13:20;4.85;;;4.18;;
17662;SDS011;8950;56.892;15.090;2022-10-31T03:15:48;4.60;;;4.18;;
17662;SDS011;8950;56.892;15.090;2022-10-31T03:18:16;4.85;;;4.03;;
17662;SDS011;8950;56.892;15.090;2022-10-31T03:20:48;6.18;;;4.25;;
17662;SDS011;8950;56.892;15.090;2022-10-31T03:23:16;5.50;;;4.40;;
17662;SDS011;8950;56.892;15.090;2022-10-31T03:25:43;4.63;;;4.15;;
17662;SDS011;8950;56.892;15.090;2022-10-31T03:28:11;4.70;;;4.05;;
17662;SDS011;8950;56.892;15.090;2022-10-31T03:30:38;5.22;;;4.30;;
17662;SDS011;8950;56.892;15.090;2022-10-31T03:33:09;4.60;;;4.13;;
17662;SDS011;8950;56.892;15.090;2022-10-31T03:35:36;4.97;;;3.88;;
17662;SDS011;8950;56.892;15.090;2022-10-31T03:38:06;4.10;;;3.70;;
17662;SDS011;8950;56.892;15.090;2022-10-31T03:40:33;3.88;;;3.58;;
17662;SDS011;8950;56.892;15.090;2022-10-31T03:43:03;3.90;;;3.60;;
17662;SDS011;8950;56.892;15.090;2022-10-31T03:45:30;3.95;;;3.55;;
17662;SDS011;8950;56.892;15.090;2022-10-31T03:47:57;3.40;;;3.10;;
17662;SDS011;8950;56.892;15.090;2022-10-31T03:50:24;3.70;;;3.40;;
17662;SDS011;8950;56.892;15.090;2022-10-31T03:52:54;3.75;;;3.42;;
17662;SDS011;8950;56.892;15.090;2022-10-31T03:55:24;3.42;;;3.13;;
17662;SDS011;8950;56.892;15.090;2022-10-31T03:57:53;3.10;;;2.90;;
17662;SDS011;8950;56.892;15.090;2022-10-31T04:00:23;4.03;;;3.63;;
17662;SDS011;8950;56.892;15.090;2022-10-31T04:02:50;3.60;;;3.30;;
17662;SDS011;8950;56.892;15.090;2022-10-31T04:05:19;3.90;;;3.50;;
17662;SDS011;8950;56.892;15.090;2022-10-31T04:07:47;3.60;;;3.30;;
17662;SDS011;8950;56.892;15.090;2022-10-31T04:10:15;4.97;;;3.67;;
17662;SDS011;8950;56.892;15.090;2022-10-31T04:12:44;3.85;;;3.30;;
17662;SDS011;8950;56.892;15.090;2022-10-31T04:15:14;3.55;;;3.25;;
17662;SDS011;8950;56.892;15.090;2022-10-31T04:17:41;5.05;;;3.40;;
17662;SDS011;8950;56.892;15.090;2022-10-31T04:20:08;4.32;;;3.15;;
17662;SDS011;8950;56.892;15.090;2022-10-31T04:22:35;3.72;;;3.42;;
17662;SDS011;8950;56.892;15.090;2022-10-31T04:25:01;3.65;;;3.35;;
17662;SDS011;8950;56.892;15.090;2022-10-31T04:27:27;4.40;;;4.00;;
17662;SDS011;8950;56.892;15.090;2022-10-31T04:29:55;3.60;;;3.30;;
17662;SDS011;8950;56.892;15.090;2022-10-31T04:32:21;3.70;;;3.28;;
17662;SDS011;8950;56.892;15.090;2022-10-31T04:34:48;3.72;;;3.28;;
17662;SDS011;8950;56.892;15.090;2022-10-31T04:37:14;3.42;;;3.13;;
17662;SDS011;8950;56.892;15.090;2022-10-31T04:39:40;3.60;;;3.30;;
17662;SDS011;8950;56.892;15.090;2022-10-31T04:42:07;3.80;;;3.50;;
17662;SDS011;8950;56.892;15.090;2022-10-31T04:44:33;4.68;;;3.53;;
17662;SDS011;8950;56.892;15.090;2022-10-31T04:47:01;3.72;;;3.42;;
17662;SDS011;8950;56.892;15.090;2022-10-31T04:49:27;3.65;;;3.35;;
17662;SDS011;8950;56.892;15.090;2022-10-31T04:51:54;3.70;;;3.40;;
17662;SDS011;8950;56.892;15.090;2022-10-31T04:54:20;4.10;;;3.58;;
17662;SDS011;8950;56.892;15.090;2022-10-31T04:56:46;4.35;;;3.95;;
17662;SDS011;8950;56.892;15.090;2022-10-31T04:59:13;4.10;;;3.70;;
17662;SDS011;8950;56.892;15.090;2022-10-31T05:01:39;4.15;;;3.75;;
17662;SDS011;8950;56.892;15.090;2022-10-31T05:04:07;3.88;;;3.58;;
17662;SDS011;8950;56.892;15.090;2022-10-31T05:06:33;4.43;;;4.03;;
17662;SDS011;8950;56.892;15.090;2022-10-31T05:08:59;3.60;;;3.30;;
17662;SDS011;8950;56.892;15.090;2022-10-31T05:11:26;4.57;;;3.30;;
17662;SDS011;8950;56.892;15.090;2022-10-31T05:13:52;8.55;;;4.03;;
17662;SDS011;8950;56.892;15.090;2022-10-31T05:16:18;4.40;;;4.03;;
17662;SDS011;8950;56.892;15.090;2022-10-31T05:18:45;4.10;;;3.80;;
17662;SDS011;8950;56.892;15.090;2022-10-31T05:21:13;4.60;;;3.95;;
17662;SDS011;8950;56.892;15.090;2022-10-31T05:23:39;4.32;;;3.92;;
17662;SDS011;8950;56.892;15.090;2022-10-31T05:26:06;4.55;;;4.10;;
17662;SDS011;8950;56.892;15.090;2022-10-31T05:28:32;4.60;;;4.20;;
17662;SDS011;8950;56.892;15.090;2022-10-31T05:30:59;5.53;;;4.57;;
17662;SDS011;8950;56.892;15.090;2022-10-31T05:33:25;4.82;;;3.97;;
17662;SDS011;8950;56.892;15.090;2022-10-31T05:35:52;4.57;;;4.18;;
17662;SDS011;8950;56.892;15.090;2022-10-31T05:38:20;4.28;;;3.95;;
17662;SDS011;8950;56.892;15.090;2022-10-31T05:40:46;3.97;;;3.67;;
17662;SDS011;8950;56.892;15.090;2022-10-31T05:43:12;3.80;;;3.50;;
17662;SDS011;8950;56.892;15.090;2022-10-31T05:45:39;4.25;;;3.83;;
17662;SDS011;8950;56.892;15.090;2022-10-31T05:48:05;4.43;;;3.92;;
17662;SDS011;8950;56.892;15.090;2022-10-31T05:50:32;4.05;;;3.75;;
17662;SDS011;8950;56.892;15.090;2022-10-31T05:52:59;3.95;;;3.65;;
17662;SDS011;8950;56.892;15.090;2022-10-31T05:55:27;4.43;;;4.05;;
17662;SDS011;8950;56.892;15.090;2022-10-31T05:57:54;3.90;;;3.60;;
17662;SDS011;8950;56.892;15.090;2022-10-31T06:00:20;3.78;;;3.47;;
17662;SDS011;8950;56.892;15.090;2022-10-31T06:02:47;4.68;;;3.50;;
17662;SDS011;8950;56.892;15.090;2022-10-31T06:05:13;3.80;;;3.50;;
17662;SDS011;8950;56.892;15.090;2022-10-31T06:07:40;4.22;;;3.83;;
17662;SDS011;8950;56.892;15.090;2022-10-31T06:10:07;4.57;;;4.07;;
17662;SDS011;8950;56.892;15.090;2022-10-31T06:12:35;3.88;;;3.58;;
17662;SDS011;8950;56.892;15.090;2022-10-31T06:15:03;3.85;;;3.55;;
17662;SDS011;8950;56.892;15.090;2022-10-31T06:17:29;3.90;;;3.60;;
17662;SDS011;8950;56.892;15.090;2022-10-31T06:19:56;4.30;;;3.90;;
17662;SDS011;8950;56.892;15.090;2022-10-31T06:22:22;5.93;;;3.72;;
17662;SDS011;8950;56.892;15.090;2022-10-31T06:24:48;3.97;;;3.58;;
17662;SDS011;8950;56.892;15.090;2022-10-31T06:27:15;3.30;;;3.10;;
17662;SDS011;8950;56.892;15.090;2022-10-31T06:29:43;3.63;;;3.35;;
17662;SDS011;8950;56.892;15.090;2022-10-31T06:32:11;3.60;;;3.30;;
17662;SDS011;8950;56.892;15.090;2022-10-31T06:34:37;3.55;;;3.28;;
17662;SDS011;8950;56.892;15.090;2022-10-31T06:37:05;3.63;;;3.33;;
17662;SDS011;8950;56.892;15.090;2022-10-31T06:39:31;4.20;;;3.90;;
17662;SDS011;8950;56.892;15.090;2022-10-31T06:41:58;4.50;;;4.10;;
17662;SDS011;8950;56.892;15.090;2022-10-31T06:44:24;4.68;;;4.25;;
17662;SDS011;8950;56.892;15.090;2022-10-31T06:46:52;4.63;;;4.22;;
17662;SDS011;8950;56.892;15.090;2022-10-31T06:49:18;4.22;;;3.83;;
17662;SDS011;8950;56.892;15.090;2022-10-31T06:51:46;4.43;;;4.03;;
17662;SDS011;8950;56.892;15.090;2022-10-31T06:54:13;4.90;;;4.50;;
17662;SDS011;8950;56.892;15.090;2022-10-31T06:56:39;4.72;;;4.30;;
17662;SDS011;8950;56.892;15.090;2022-10-31T06:59:06;4.60;;;4.20;;
17662;SDS011;8950;56.892;15.090;2022-10-31T07:01:32;4.63;;;4.22;;
17662;SDS011;8950;56.892;15.090;2022-10-31T07:04:00;4.70;;;4.30;;
17662;SDS011;8950;56.892;15.090;2022-10-31T07:06:26;5.32;;;4.82;;
17662;SDS011;8950;56.892;15.090;2022-10-31T07:08:53;4.97;;;4.57;;
17662;SDS011;8950;56.892;15.090;2022-10-31T07:11:19;5.30;;;4.80;;
17662;SDS011;8950;56.892;15.090;2022-10-31T07:13:45;4.90;;;4.50;;
17662;SDS011;8950;56.892;15.090;2022-10-31T07:16:12;5.75;;;4.40;;
17662;SDS011;8950;56.892;15.090;2022-10-31T07:18:39;5.72;;;4.63;;
17662;SDS011;8950;56.892;15.090;2022-10-31T07:21:07;5.05;;;4.55;;
17662;SDS011;8950;56.892;15.090;2022-10-31T07:23:33;5.30;;;4.80;;
17662;SDS011;8950;56.892;15.090;2022-10-31T07:25:59;5.03;;;4.63;;
17662;SDS011;8950;56.892;15.090;2022-10-31T07:28:26;5.05;;;4.55;;
17662;SDS011;8950;56.892;15.090;2022-10-31T07:30:53;7.40;;;4.57;;
17662;SDS011;8950;56.892;15.090;2022-10-31T07:33:20;6.82;;;4.65;;
17662;SDS011;8950;56.892;15.090;2022-10-31T07:35:46;4.78;;;4.38;;
17662;SDS011;8950;56.892;15.090;2022-10-31T07:38:15;4.60;;;4.18;;
17662;SDS011;8950;56.892;15.090;2022-10-31T07:40:41;5.35;;;4.53;;
17662;SDS011;8950;56.892;15.090;2022-10-31T07:43:08;8.75;;;5.25;;
17662;SDS011;8950;56.892;15.090;2022-10-31T07:45:34;6.53;;;4.60;;
17662;SDS011;8950;56.892;15.090;2022-10-31T07:48:01;6.68;;;4.68;;
17662;SDS011;8950;56.892;15.090;2022-10-31T07:50:28;5.60;;;5.00;;
17662;SDS011;8950;56.892;15.090;2022-10-31T07:52:58;5.90;;;5.30;;
17662;SDS011;8950;56.892;15.090;2022-10-31T07:55:26;6.32;;;5.05;;
17662;SDS011;8950;56.892;15.090;2022-10-31T07:57:56;6.00;;;5.07;;
17662;SDS011;8950;56.892;15.090;2022-10-31T08:00:23;6.88;;;5.07;;
17662;SDS011;8950;56.892;15.090;2022-10-31T08:02:55;5.85;;;5.22;;
17662;SDS011;8950;56.892;15.090;2022-10-31T08:05:22;9.15;;;5.95;;
17662;SDS011;8950;56.892;15.090;2022-10-31T08:07:48;14.48;;;5.70;;
17662;SDS011;8950;56.892;15.090;2022-10-31T08:10:15;12.90;;;6.32;;
17662;SDS011;8950;56.892;15.090;2022-10-31T08:12:42;10.82;;;6.30;;
17662;SDS011;8950;56.892;15.090;2022-10-31T08:15:09;6.30;;;5.28;;
17662;SDS011;8950;56.892;15.090;2022-10-31T08:17:36;7.82;;;5.57;;
17662;SDS011;8950;56.892;15.090;2022-10-31T08:20:02;6.00;;;5.40;;
17662;SDS011;8950;56.892;15.090;2022-10-31T08:22:29;8.00;;;4.85;;
17662;SDS011;8950;56.892;15.090;2022-10-31T08:24:56;6.90;;;5.00;;
17662;SDS011;8950;56.892;15.090;2022-10-31T08:27:22;8.80;;;5.00;;
17662;SDS011;8950;56.892;15.090;2022-10-31T08:29:50;5.40;;;4.90;;
17662;SDS011;8950;56.892;15.090;2022-10-31T08:32:16;8.32;;;4.80;;
17662;SDS011;8950;56.892;15.090;2022-10-31T08:34:42;5.43;;;4.72;;
17662;SDS011;8950;56.892;15.090;2022-10-31T08:37:09;5.55;;;4.78;;
17662;SDS011;8950;56.892;15.090;2022-10-31T08:39:35;7.03;;;4.78;;
17662;SDS011;8950;56.892;15.090;2022-10-31T08:42:01;5.20;;;4.80;;
17662;SDS011;8950;56.892;15.090;2022-10-31T08:44:28;5.13;;;4.60;;
17662;SDS011;8950;56.892;15.090;2022-10-31T08:46:56;7.68;;;4.15;;
17662;SDS011;8950;56.892;15.090;2022-10-31T08:49:22;5.10;;;4.68;;
17662;SDS011;8950;56.892;15.090;2022-10-31T08:51:49;4.78;;;4.38;;
17662;SDS011;8950;56.892;15.090;2022-10-31T08:54:15;4.80;;;4.40;;
17662;SDS011;8950;56.892;15.090;2022-10-31T08:56:41;8.70;;;4.45;;
17662;SDS011;8950;56.892;15.090;2022-10-31T08:59:08;4.63;;;3.75;;
17662;SDS011;8950;56.892;15.090;2022-10-31T09:01:34;4.65;;;3.85;;
17662;SDS011;8950;56.892;15.090;2022-10-31T09:04:02;4.53;;;4.13;;
17662;SDS011;8950;56.892;15.090;2022-10-31T09:06:29;4.50;;;4.10;;
17662;SDS011;8950;56.892;15.090;2022-10-31T09:08:55;4.22;;;3.83;;
17662;SDS011;8950;56.892;15.090;2022-10-31T09:11:23;4.78;;;4.03;;
17662;SDS011;8950;56.892;15.090;2022-10-31T09:13:49;4.38;;;3.97;;
17662;SDS011;8950;56.892;15.090;2022-10-31T09:16:17;4.18;;;3.70;;
17662;SDS011;8950;56.892;15.090;2022-10-31T09:18:44;4.25;;;3.92;;
17662;SDS011;8950;56.892;15.090;2022-10-31T09:21:12;4.45;;;4.05;;
17662;SDS011;8950;56.892;15.090;2022-10-31T09:23:38;5.18;;;4.40;;
17662;SDS011;8950;56.892;15.090;2022-10-31T09:26:04;5.13;;;4.65;;
17662;SDS011;8950;56.892;15.090;2022-10-31T09:28:31;5.80;;;5.18;;
17662;SDS011;8950;56.892;15.090;2022-10-31T09:30:57;5.28;;;4.78;;
17662;SDS011;8950;56.892;15.090;2022-10-31T09:33:24;4.97;;;4.47;;
17662;SDS011;8950;56.892;15.090;2022-10-31T09:35:50;4.97;;;4.57;;
17662;SDS011;8950;56.892;15.090;2022-10-31T09:38:19;5.55;;;4.88;;
17662;SDS011;8950;56.892;15.090;2022-10-31T09:40:46;4.63;;;4.22;;
17662;SDS011;8950;56.892;15.090;2022-10-31T09:43:14;6.25;;;4.55;;
17662;SDS011;8950;56.892;15.090;2022-10-31T09:45:44;4.75;;;4.25;;
17662;SDS011;8950;56.892;15.090;2022-10-31T09:48:18;5.90;;;4.88;;
17662;SDS011;8950;56.892;15.090;2022-10-31T09:50:48;6.32;;;4.97;;
17662;SDS011;8950;56.892;15.090;2022-10-31T09:53:21;5.22;;;4.63;;
17662;SDS011;8950;56.892;15.090;2022-10-31T09:55:48;5.90;;;4.72;;
17662;SDS011;8950;56.892;15.090;2022-10-31T09:58:16;6.45;;;5.18;;
17662;SDS011;8950;56.892;15.090;2022-10-31T10:00:44;5.45;;;4.95;;
17662;SDS011;8950;56.892;15.090;2022-10-31T10:03:12;8.02;;;5.20;;
17662;SDS011;8950;56.892;15.090;2022-10-31T10:05:43;8.00;;;5.60;;
17662;SDS011;8950;56.892;15.090;2022-10-31T10:08:13;6.82;;;5.57;;
17662;SDS011;8950;56.892;15.090;2022-10-31T10:10:47;6.28;;;5.32;;
17662;SDS011;8950;56.892;15.090;2022-10-31T10:13:22;8.52;;;5.20;;
17662;SDS011;8950;56.892;15.090;2022-10-31T10:15:58;6.60;;;5.68;;
17662;SDS011;8950;56.892;15.090;2022-10-31T10:18:30;8.43;;;5.72;;
17662;SDS011;8950;56.892;15.090;2022-10-31T10:21:01;7.80;;;5.47;;
17662;SDS011;8950;56.892;15.090;2022-10-31T10:23:32;5.93;;;5.32;;
17662;SDS011;8950;56.892;15.090;2022-10-31T10:26:10;6.50;;;5.80;;
17662;SDS011;8950;56.892;15.090;2022-10-31T10:28:40;7.50;;;6.18;;
17662;SDS011;8950;56.892;15.090;2022-10-31T10:31:08;6.95;;;6.25;;
17662;SDS011;8950;56.892;15.090;2022-10-31T10:33:36;8.57;;;6.25;;
17662;SDS011;8950;56.892;15.090;2022-10-31T10:36:05;8.70;;;6.43;;
17662;SDS011;8950;56.892;15.090;2022-10-31T10:38:36;6.85;;;5.90;;
17662;SDS011;8950;56.892;15.090;2022-10-31T10:41:07;9.00;;;6.47;;
17662;SDS011;8950;56.892;15.090;2022-10-31T10:43:36;8.40;;;6.53;;
17662;SDS011;8950;56.892;15.090;2022-10-31T10:46:05;20.45;;;6.63;;
17662;SDS011;8950;56.892;15.090;2022-10-31T10:48:53;8.15;;;6.55;;
17662;SDS011;8950;56.892;15.090;2022-10-31T10:51:22;8.13;;;6.88;;
17662;SDS011;8950;56.892;15.090;2022-10-31T10:54:01;10.00;;;6.65;;
17662;SDS011;8950;56.892;15.090;2022-10-31T10:59:13;10.63;;;6.25;;
17662;SDS011;8950;56.892;15.090;2022-10-31T11:01:40;8.80;;;7.18;;
17662;SDS011;8950;56.892;15.090;2022-10-31T11:04:13;7.85;;;7.03;;
17662;SDS011;8950;56.892;15.090;2022-10-31T11:06:42;11.52;;;6.63;;
17662;SDS011;8950;56.892;15.090;2022-10-31T11:09:08;8.43;;;7.25;;
17662;SDS011;8950;56.892;15.090;2022-10-31T11:11:35;8.13;;;7.03;;
17662;SDS011;8950;56.892;15.090;2022-10-31T11:14:02;9.27;;;7.03;;
17662;SDS011;8950;56.892;15.090;2022-10-31T11:16:32;9.32;;;7.90;;
17662;SDS011;8950;56.892;15.090;2022-10-31T11:19:06;8.63;;;7.72;;
17662;SDS011;8950;56.892;15.090;2022-10-31T11:21:33;11.57;;;7.78;;
17662;SDS011;8950;56.892;15.090;2022-10-31T11:24:03;8.90;;;7.57;;
17662;SDS011;8950;56.892;15.090;2022-10-31T11:26:30;8.63;;;7.78;;
17662;SDS011;8950;56.892;15.090;2022-10-31T11:29:00;9.15;;;8.15;;
17662;SDS011;8950;56.892;15.090;2022-10-31T11:31:28;9.43;;;8.43;;
17662;SDS011;8950;56.892;15.090;2022-10-31T11:33:57;10.63;;;7.88;;
17662;SDS011;8950;56.892;15.090;2022-10-31T11:36:25;10.15;;;8.23;;
17662;SDS011;8950;56.892;15.090;2022-10-31T11:38:52;9.55;;;8.30;;
17662;SDS011;8950;56.892;15.090;2022-10-31T11:41:24;10.85;;;8.48;;
17662;SDS011;8950;56.892;15.090;2022-10-31T11:43:53;12.43;;;8.52;;
17662;SDS011;8950;56.892;15.090;2022-10-31T11:46:21;9.77;;;8.73;;
17662;SDS011;8950;56.892;15.090;2022-10-31T11:48:48;9.98;;;8.85;;
17662;SDS011;8950;56.892;15.090;2022-10-31T11:51:21;9.75;;;8.10;;
17662;SDS011;8950;56.892;15.090;2022-10-31T11:53:50;9.07;;;8.15;;
17662;SDS011;8950;56.892;15.090;2022-10-31T11:56:17;11.93;;;8.40;;
17662;SDS011;8950;56.892;15.090;2022-10-31T11:58:43;8.52;;;7.53;;
17662;SDS011;8950;56.892;15.090;2022-10-31T12:01:22;8.88;;;7.97;;
17662;SDS011;8950;56.892;15.090;2022-10-31T12:03:51;8.60;;;7.22;;
17662;SDS011;8950;56.892;15.090;2022-10-31T12:06:22;10.65;;;7.63;;
17662;SDS011;8950;56.892;15.090;2022-10-31T12:08:49;8.00;;;6.80;;
17662;SDS011;8950;56.892;15.090;2022-10-31T12:11:20;7.55;;;6.78;;
17662;SDS011;8950;56.892;15.090;2022-10-31T12:13:53;8.75;;;6.85;;
17662;SDS011;8950;56.892;15.090;2022-10-31T12:16:27;9.10;;;7.65;;
17662;SDS011;8950;56.892;15.090;2022-10-31T12:18:57;8.20;;;7.07;;
17662;SDS011;8950;56.892;15.090;2022-10-31T12:21:30;8.02;;;7.28;;
17662;SDS011;8950;56.892;15.090;2022-10-31T12:24:04;10.50;;;8.15;;
17662;SDS011;8950;56.892;15.090;2022-10-31T12:26:34;9.90;;;8.20;;
17662;SDS011;8950;56.892;15.090;2022-10-31T12:31:47;8.45;;;7.53;;
17662;SDS011;8950;56.892;15.090;2022-10-31T12:34:26;9.15;;;7.68;;
17662;SDS011;8950;56.892;15.090;2022-10-31T12:36:59;9.20;;;7.70;;
17662;SDS011;8950;56.892;15.090;2022-10-31T12:39:32;9.50;;;7.63;;
17662;SDS011;8950;56.892;15.090;2022-10-31T12:42:02;8.48;;;7.43;;
17662;SDS011;8950;56.892;15.090;2022-10-31T12:44:39;9.25;;;7.65;;
17662;SDS011;8950;56.892;15.090;2022-10-31T12:47:12;11.27;;;8.23;;
17662;SDS011;8950;56.892;15.090;2022-10-31T12:49:47;8.23;;;7.43;;
17662;SDS011;8950;56.892;15.090;2022-10-31T12:52:30;8.30;;;7.50;;
17662;SDS011;8950;56.892;15.090;2022-10-31T12:55:04;9.68;;;7.78;;
17662;SDS011;8950;56.892;15.090;2022-10-31T12:57:33;11.60;;;7.60;;
17662;SDS011;8950;56.892;15.090;2022-10-31T13:00:03;9.65;;;8.15;;
17662;SDS011;8950;56.892;15.090;2022-10-31T13:02:31;10.52;;;7.63;;
17662;SDS011;8950;56.892;15.090;2022-10-31T13:05:00;11.65;;;7.75;;
17662;SDS011;8950;56.892;15.090;2022-10-31T13:07:29;9.82;;;7.93;;
17662;SDS011;8950;56.892;15.090;2022-10-31T13:09:58;8.57;;;7.32;;
17662;SDS011;8950;56.892;15.090;2022-10-31T13:12:26;9.18;;;7.93;;
17662;SDS011;8950;56.892;15.090;2022-10-31T13:14:54;9.52;;;7.38;;
17662;SDS011;8950;56.892;15.090;2022-10-31T13:17:22;9.77;;;7.53;;
17662;SDS011;8950;56.892;15.090;2022-10-31T13:19:50;11.32;;;7.75;;
17662;SDS011;8950;56.892;15.090;2022-10-31T13:22:18;10.02;;;7.72;;
17662;SDS011;8950;56.892;15.090;2022-10-31T13:24:51;8.45;;;7.35;;
17662;SDS011;8950;56.892;15.090;2022-10-31T13:27:20;8.05;;;7.18;;
17662;SDS011;8950;56.892;15.090;2022-10-31T13:29:49;8.27;;;7.18;;
17662;SDS011;8950;56.892;15.090;2022-10-31T13:32:19;8.23;;;6.90;;
17662;SDS011;8950;56.892;15.090;2022-10-31T13:34:46;9.10;;;7.20;;
17662;SDS011;8950;56.892;15.090;2022-10-31T13:37:15;6.75;;;6.10;;
17662;SDS011;8950;56.892;15.090;2022-10-31T13:39:50;8.98;;;6.97;;
17662;SDS011;8950;56.892;15.090;2022-10-31T13:42:19;8.55;;;6.90;;
17662;SDS011;8950;56.892;15.090;2022-10-31T13:44:47;9.55;;;6.97;;
17662;SDS011;8950;56.892;15.090;2022-10-31T13:47:24;8.65;;;7.47;;
17662;SDS011;8950;56.892;15.090;2022-10-31T13:49:50;8.70;;;6.90;;
17662;SDS011;8950;56.892;15.090;2022-10-31T13:52:22;9.27;;;7.07;;
17662;SDS011;8950;56.892;15.090;2022-10-31T13:54:51;8.02;;;6.43;;
17662;SDS011;8950;56.892;15.090;2022-10-31T13:57:22;10.95;;;6.85;;
17662;SDS011;8950;56.892;15.090;2022-10-31T13:59:52;8.32;;;6.68;;
17662;SDS011;8950;56.892;15.090;2022-10-31T14:02:22;8.73;;;7.30;;
17662;SDS011;8950;56.892;15.090;2022-10-31T14:04:51;7.57;;;6.78;;
17662;SDS011;8950;56.892;15.090;2022-10-31T14:07:18;8.98;;;6.57;;
17662;SDS011;8950;56.892;15.090;2022-10-31T14:09:52;9.48;;;7.55;;
17662;SDS011;8950;56.892;15.090;2022-10-31T14:12:22;8.27;;;7.28;;
17662;SDS011;8950;56.892;15.090;2022-10-31T14:14:51;9.27;;;7.50;;
17662;SDS011;8950;56.892;15.090;2022-10-31T14:17:20;9.02;;;6.93;;
17662;SDS011;8950;56.892;15.090;2022-10-31T14:19:59;9.05;;;7.00;;
17662;SDS011;8950;56.892;15.090;2022-10-31T14:22:28;8.32;;;6.22;;
17662;SDS011;8950;56.892;15.090;2022-10-31T14:24:56;7.43;;;6.45;;
17662;SDS011;8950;56.892;15.090;2022-10-31T14:27:33;7.93;;;6.15;;
17662;SDS011;8950;56.892;15.090;2022-10-31T14:30:08;7.60;;;6.40;;
17662;SDS011;8950;56.892;15.090;2022-10-31T14:32:39;9.48;;;6.18;;
17662;SDS011;8950;56.892;15.090;2022-10-31T14:35:09;9.57;;;6.45;;
17662;SDS011;8950;56.892;15.090;2022-10-31T14:37:42;10.48;;;6.13;;
17662;SDS011;8950;56.892;15.090;2022-10-31T14:40:19;7.68;;;6.38;;
17662;SDS011;8950;56.892;15.090;2022-10-31T14:43:00;7.10;;;6.40;;
17662;SDS011;8950;56.892;15.090;2022-10-31T14:45:32;9.68;;;6.82;;
17662;SDS011;8950;56.892;15.090;2022-10-31T14:48:09;8.50;;;6.72;;
17662;SDS011;8950;56.892;15.090;2022-10-31T14:50:41;7.47;;;6.72;;
17662;SDS011;8950;56.892;15.090;2022-10-31T14:53:08;9.60;;;6.70;;
17662;SDS011;8950;56.892;15.090;2022-10-31T14:55:41;8.70;;;6.50;;
17662;SDS011;8950;56.892;15.090;2022-10-31T14:58:09;10.65;;;7.22;;
17662;SDS011;8950;56.892;15.090;2022-10-31T15:00:36;11.68;;;6.80;;